This demonstration page uses our WeatherBlox Daily Observations layout. Learn more.

36.17497, -115.13722

Hourly Observations for June 14, 2016

Temp ( °F °C ) Dew Point ( °F °C ) Humidity (%) Winds ( mph kmh ) Pressure ( in mb ) Visibility ( mi km ) Precip ( " mm )
12:53 am 00:53 Clear 78 25.6 34 1.1 20 20 Calm 29.8 1009 10 16.0934 0 0
1:53 am 01:53 Clear 77 25 34 1.1 21 21 NNW 5 7 29.8 1009 10 16.0934 0 0
2:53 am 02:53 Clear 76 24.4 35 1.7 23 23 WNW 3 6 29.79 1009 10 16.0934 0 0
3:53 am 03:53 Clear 74 23.3 35 1.7 24 24 NW 6 9 29.79 1009 10 16.0934 0 0
4:53 am 04:53 Clear 72 22.2 35 1.7 26 26 NE 3 6 29.8 1009 10 16.0934 0 0
5:53 am 05:53 Sunny 71 21.7 35 1.7 27 27 N 3 6 29.82 1010 10 16.0934 0 0
6:53 am 06:53 Sunny 76 24.4 37 2.8 24 24 ENE 3 6 29.82 1010 10 16.0934 0 0
7:53 am 07:53 Sunny 81 27.2 37 2.8 21 21 SSE 9 15 29.83 1010 10 16.0934 0 0
8:53 am 08:53 Sunny 84 28.9 36 2.2 18 18 SSE 15 24 29.82 1010 10 16.0934 0 0
9:53 am 09:53 Sunny 88 31.1 34 1.1 15 15 S 18 30 29.8 1009 10 16.0934 0 0
10:53 am 10:53 Sunny 91 32.8 32 0 12 12 S 24 39 29.79 1009 10 16.0934 0 0
11:53 am 11:53 Sunny 92 33.3 32 0 12 12 SSW 17 28 29.78 1009 10 16.0934 0 0
12:53 pm 12:53 Sunny 94 34.4 33 0.6 12 12 SW 14 22 29.76 1008 10 16.0934 0 0
1:53 pm 13:53 Sunny 95 35 31 -0.6 10 10 SW 15 24 29.73 1007 10 16.0934 0 0
2:53 pm 14:53 Sunny 96 35.6 30 -1.1 10 10 SW 14 22 29.7 1006 10 16.0934 0 0
3:53 pm 15:53 Sunny 96 35.6 31 -0.6 10 10 SW 12 19 29.68 1005 10 16.0934 0 0
4:53 pm 16:53 Sunny 95 35 27 -2.8 9 9 SSW 14 22 29.67 1005 10 16.0934 0 0
5:53 pm 17:53 Sunny 96 35.6 28 -2.2 9 9 SW 16 26 29.65 1004 10 16.0934 0 0
6:53 pm 18:53 Sunny 94 34.4 28 -2.2 9 9 SW 18 30 29.65 1004 10 16.0934 0 0
7:53 pm 19:53 Sunny 92 33.3 30 -1.1 11 11 SW 14 22 29.65 1004 10 16.0934 0 0
8:53 pm 20:53 Clear 91 32.8 32 0 12 12 SSW 15 24 29.65 1004 10 16.0934 0 0
9:53 pm 21:53 Clear 89 31.7 27 -2.8 11 11 SSW 14 22 29.67 1005 10 16.0934 0 0
10:53 pm 22:53 Clear 86 30 30 -1.1 13 13 SSW 12 19 29.67 1005 10 16.0934 0 0
11:53 pm 23:53 Clear 83 28.3 29 -1.7 14 14 SSW 12 19 29.69 1005 10 16.0934 0 0

Powered by AerisWeather